sensor_id;sensor_type;location;lat;lon;timestamp;temperature;humidity
13794;DHT22;31160;49.500;7.772;2023-12-14T00:00:24;8.00;99.90
13794;DHT22;31160;49.500;7.772;2023-12-14T00:02:52;8.00;99.90
13794;DHT22;31160;49.500;7.772;2023-12-14T00:05:19;8.00;99.90
13794;DHT22;31160;49.500;7.772;2023-12-14T00:07:47;8.00;99.90
13794;DHT22;31160;49.500;7.772;2023-12-14T00:10:15;8.00;99.90
13794;DHT22;31160;49.500;7.772;2023-12-14T00:12:45;7.90;99.90
13794;DHT22;31160;49.500;7.772;2023-12-14T00:15:12;7.90;99.90
13794;DHT22;31160;49.500;7.772;2023-12-14T00:17:40;7.90;99.90
13794;DHT22;31160;49.500;7.772;2023-12-14T00:20:08;7.90;99.90
13794;DHT22;31160;49.500;7.772;2023-12-14T00:22:36;7.90;99.90
13794;DHT22;31160;49.500;7.772;2023-12-14T00:25:05;7.90;99.90
13794;DHT22;31160;49.500;7.772;2023-12-14T00:27:33;7.90;99.90
13794;DHT22;31160;49.500;7.772;2023-12-14T00:30:00;7.90;99.90
13794;DHT22;31160;49.500;7.772;2023-12-14T00:32:28;7.90;99.90
13794;DHT22;31160;49.500;7.772;2023-12-14T00:34:56;7.90;99.90
13794;DHT22;31160;49.500;7.772;2023-12-14T00:37:23;7.90;99.90
13794;DHT22;31160;49.500;7.772;2023-12-14T00:39:51;7.90;99.90
13794;DHT22;31160;49.500;7.772;2023-12-14T00:42:18;7.90;99.90
13794;DHT22;31160;49.500;7.772;2023-12-14T00:44:45;7.90;99.90
13794;DHT22;31160;49.500;7.772;2023-12-14T00:47:13;7.90;99.90
13794;DHT22;31160;49.500;7.772;2023-12-14T00:49:40;7.90;99.90
13794;DHT22;31160;49.500;7.772;2023-12-14T00:52:08;7.90;99.90
13794;DHT22;31160;49.500;7.772;2023-12-14T00:54:36;7.90;99.90
13794;DHT22;31160;49.500;7.772;2023-12-14T00:57:04;7.90;99.90
13794;DHT22;31160;49.500;7.772;2023-12-14T00:59:32;8.00;99.90
13794;DHT22;31160;49.500;7.772;2023-12-14T01:01:59;8.00;99.90
13794;DHT22;31160;49.500;7.772;2023-12-14T01:04:27;8.00;99.90
13794;DHT22;31160;49.500;7.772;2023-12-14T01:06:55;8.00;99.90
13794;DHT22;31160;49.500;7.772;2023-12-14T01:09:23;8.00;99.90
13794;DHT22;31160;49.500;7.772;2023-12-14T01:11:51;8.10;99.90
13794;DHT22;31160;49.500;7.772;2023-12-14T01:14:19;8.10;99.90
13794;DHT22;31160;49.500;7.772;2023-12-14T01:16:46;8.00;99.90
13794;DHT22;31160;49.500;7.772;2023-12-14T01:19:14;8.00;99.90
13794;DHT22;31160;49.500;7.772;2023-12-14T01:21:42;8.10;99.90
13794;DHT22;31160;49.500;7.772;2023-12-14T01:24:10;8.10;99.90
13794;DHT22;31160;49.500;7.772;2023-12-14T01:26:38;8.10;99.90
13794;DHT22;31160;49.500;7.772;2023-12-14T01:29:05;8.10;99.90
13794;DHT22;31160;49.500;7.772;2023-12-14T01:31:33;8.10;99.90
13794;DHT22;31160;49.500;7.772;2023-12-14T01:34:01;8.10;99.90
13794;DHT22;31160;49.500;7.772;2023-12-14T01:36:28;8.10;99.90
13794;DHT22;31160;49.500;7.772;2023-12-14T01:38:56;8.10;99.90
13794;DHT22;31160;49.500;7.772;2023-12-14T01:41:24;8.10;99.90
13794;DHT22;31160;49.500;7.772;2023-12-14T01:43:51;8.10;99.90
13794;DHT22;31160;49.500;7.772;2023-12-14T01:46:18;8.00;99.90
13794;DHT22;31160;49.500;7.772;2023-12-14T01:48:44;8.00;99.90
13794;DHT22;31160;49.500;7.772;2023-12-14T01:51:11;8.00;99.90
13794;DHT22;31160;49.500;7.772;2023-12-14T01:53:38;8.00;99.90
13794;DHT22;31160;49.500;7.772;2023-12-14T01:56:05;8.10;99.90
13794;DHT22;31160;49.500;7.772;2023-12-14T01:58:32;8.10;99.90
13794;DHT22;31160;49.500;7.772;2023-12-14T02:01:07;8.00;99.90
13794;DHT22;31160;49.500;7.772;2023-12-14T02:03:36;8.00;99.90
13794;DHT22;31160;49.500;7.772;2023-12-14T02:06:09;8.00;99.90
13794;DHT22;31160;49.500;7.772;2023-12-14T02:08:36;8.00;99.90
13794;DHT22;31160;49.500;7.772;2023-12-14T02:11:03;8.00;99.90
13794;DHT22;31160;49.500;7.772;2023-12-14T02:13:30;8.00;99.90
13794;DHT22;31160;49.500;7.772;2023-12-14T02:15:57;8.00;99.90
13794;DHT22;31160;49.500;7.772;2023-12-14T02:18:24;8.00;99.90
13794;DHT22;31160;49.500;7.772;2023-12-14T02:20:51;8.00;99.90
13794;DHT22;31160;49.500;7.772;2023-12-14T02:23:18;8.00;99.90
13794;DHT22;31160;49.500;7.772;2023-12-14T02:25:45;8.00;99.90
13794;DHT22;31160;49.500;7.772;2023-12-14T02:28:11;8.00;99.90
13794;DHT22;31160;49.500;7.772;2023-12-14T02:30:38;8.00;99.90
13794;DHT22;31160;49.500;7.772;2023-12-14T02:33:05;8.00;99.90
13794;DHT22;31160;49.500;7.772;2023-12-14T02:35:32;8.00;99.90
13794;DHT22;31160;49.500;7.772;2023-12-14T02:37:59;7.90;99.90
13794;DHT22;31160;49.500;7.772;2023-12-14T02:40:26;7.90;99.90
13794;DHT22;31160;49.500;7.772;2023-12-14T02:42:52;7.90;99.90
13794;DHT22;31160;49.500;7.772;2023-12-14T02:45:19;7.90;99.90
13794;DHT22;31160;49.500;7.772;2023-12-14T02:47:46;7.90;99.90
13794;DHT22;31160;49.500;7.772;2023-12-14T02:50:14;7.90;99.90
13794;DHT22;31160;49.500;7.772;2023-12-14T02:52:41;8.00;99.90
13794;DHT22;31160;49.500;7.772;2023-12-14T02:55:08;7.90;99.90
13794;DHT22;31160;49.500;7.772;2023-12-14T02:57:34;7.90;99.90
13794;DHT22;31160;49.500;7.772;2023-12-14T03:00:01;7.90;99.90
13794;DHT22;31160;49.500;7.772;2023-12-14T03:02:29;7.90;99.90
13794;DHT22;31160;49.500;7.772;2023-12-14T03:04:55;7.90;99.90
13794;DHT22;31160;49.500;7.772;2023-12-14T03:07:22;7.90;99.90
13794;DHT22;31160;49.500;7.772;2023-12-14T03:09:49;7.90;99.90
13794;DHT22;31160;49.500;7.772;2023-12-14T03:12:16;7.90;99.90
13794;DHT22;31160;49.500;7.772;2023-12-14T03:14:42;7.90;99.90
13794;DHT22;31160;49.500;7.772;2023-12-14T03:17:09;7.90;99.90
13794;DHT22;31160;49.500;7.772;2023-12-14T03:19:40;7.90;99.90
13794;DHT22;31160;49.500;7.772;2023-12-14T03:22:08;7.90;99.90
13794;DHT22;31160;49.500;7.772;2023-12-14T03:24:35;7.90;99.90
13794;DHT22;31160;49.500;7.772;2023-12-14T03:27:03;7.90;99.90
13794;DHT22;31160;49.500;7.772;2023-12-14T03:29:30;7.90;99.90
13794;DHT22;31160;49.500;7.772;2023-12-14T03:31:58;7.90;99.90
13794;DHT22;31160;49.500;7.772;2023-12-14T03:34:25;7.90;99.90
13794;DHT22;31160;49.500;7.772;2023-12-14T03:36:51;7.90;99.90
13794;DHT22;31160;49.500;7.772;2023-12-14T03:39:18;7.90;99.90
13794;DHT22;31160;49.500;7.772;2023-12-14T03:41:45;7.90;99.90
13794;DHT22;31160;49.500;7.772;2023-12-14T03:44:12;7.90;99.90
13794;DHT22;31160;49.500;7.772;2023-12-14T03:46:39;7.90;99.90
13794;DHT22;31160;49.500;7.772;2023-12-14T03:49:06;7.90;99.90
13794;DHT22;31160;49.500;7.772;2023-12-14T03:51:32;7.90;99.90
13794;DHT22;31160;49.500;7.772;2023-12-14T03:53:59;7.90;99.90
13794;DHT22;31160;49.500;7.772;2023-12-14T03:56:26;7.90;99.90
13794;DHT22;31160;49.500;7.772;2023-12-14T03:58:53;7.90;99.90
13794;DHT22;31160;49.500;7.772;2023-12-14T04:01:20;7.80;99.90
13794;DHT22;31160;49.500;7.772;2023-12-14T04:03:47;7.80;99.90
13794;DHT22;31160;49.500;7.772;2023-12-14T04:06:15;7.80;99.90
13794;DHT22;31160;49.500;7.772;2023-12-14T04:08:42;7.70;99.90
13794;DHT22;31160;49.500;7.772;2023-12-14T04:11:09;7.80;99.90
13794;DHT22;31160;49.500;7.772;2023-12-14T04:13:36;7.80;99.90
13794;DHT22;31160;49.500;7.772;2023-12-14T04:16:03;7.70;99.90
13794;DHT22;31160;49.500;7.772;2023-12-14T04:18:30;7.70;99.90
13794;DHT22;31160;49.500;7.772;2023-12-14T04:20:57;7.70;99.90
13794;DHT22;31160;49.500;7.772;2023-12-14T04:23:24;7.70;99.90
13794;DHT22;31160;49.500;7.772;2023-12-14T04:25:51;7.70;99.90
13794;DHT22;31160;49.500;7.772;2023-12-14T04:28:18;7.70;99.90
13794;DHT22;31160;49.500;7.772;2023-12-14T04:30:45;7.70;99.90
13794;DHT22;31160;49.500;7.772;2023-12-14T04:33:11;7.70;99.90
13794;DHT22;31160;49.500;7.772;2023-12-14T04:35:38;7.70;99.90
13794;DHT22;31160;49.500;7.772;2023-12-14T04:38:05;7.70;99.90
13794;DHT22;31160;49.500;7.772;2023-12-14T04:40:32;7.70;99.90
13794;DHT22;31160;49.500;7.772;2023-12-14T04:42:59;7.70;99.90
13794;DHT22;31160;49.500;7.772;2023-12-14T04:45:26;7.60;99.90
13794;DHT22;31160;49.500;7.772;2023-12-14T04:47:53;7.60;99.90
13794;DHT22;31160;49.500;7.772;2023-12-14T04:50:20;7.60;99.90
13794;DHT22;31160;49.500;7.772;2023-12-14T04:52:47;7.60;99.90
13794;DHT22;31160;49.500;7.772;2023-12-14T04:55:14;7.60;99.90
13794;DHT22;31160;49.500;7.772;2023-12-14T04:57:41;7.60;99.90
13794;DHT22;31160;49.500;7.772;2023-12-14T05:00:08;7.60;99.90
13794;DHT22;31160;49.500;7.772;2023-12-14T05:02:35;7.60;99.90
13794;DHT22;31160;49.500;7.772;2023-12-14T05:05:02;7.60;99.90
13794;DHT22;31160;49.500;7.772;2023-12-14T05:07:29;7.60;99.90
13794;DHT22;31160;49.500;7.772;2023-12-14T05:09:57;7.60;99.90
13794;DHT22;31160;49.500;7.772;2023-12-14T05:12:23;7.70;99.90
13794;DHT22;31160;49.500;7.772;2023-12-14T05:14:52;7.70;99.90
13794;DHT22;31160;49.500;7.772;2023-12-14T05:17:19;7.60;99.90
13794;DHT22;31160;49.500;7.772;2023-12-14T05:19:46;7.60;99.90
13794;DHT22;31160;49.500;7.772;2023-12-14T05:22:13;7.60;99.90
13794;DHT22;31160;49.500;7.772;2023-12-14T05:24:40;7.60;99.90
13794;DHT22;31160;49.500;7.772;2023-12-14T05:27:07;7.60;99.90
13794;DHT22;31160;49.500;7.772;2023-12-14T05:29:33;7.50;99.90
13794;DHT22;31160;49.500;7.772;2023-12-14T05:32:01;7.60;99.90
13794;DHT22;31160;49.500;7.772;2023-12-14T05:34:27;7.60;99.90
13794;DHT22;31160;49.500;7.772;2023-12-14T05:36:54;7.60;99.90
13794;DHT22;31160;49.500;7.772;2023-12-14T05:39:21;7.60;99.90
13794;DHT22;31160;49.500;7.772;2023-12-14T05:41:48;7.60;99.90
13794;DHT22;31160;49.500;7.772;2023-12-14T05:44:14;7.60;99.90
13794;DHT22;31160;49.500;7.772;2023-12-14T05:46:41;7.60;99.90
13794;DHT22;31160;49.500;7.772;2023-12-14T05:49:08;7.70;99.90
13794;DHT22;31160;49.500;7.772;2023-12-14T05:51:35;7.70;99.90
13794;DHT22;31160;49.500;7.772;2023-12-14T05:54:04;7.70;99.90
13794;DHT22;31160;49.500;7.772;2023-12-14T05:56:31;7.70;99.90
13794;DHT22;31160;49.500;7.772;2023-12-14T05:58:58;7.60;99.90
13794;DHT22;31160;49.500;7.772;2023-12-14T06:01:25;7.60;99.90
13794;DHT22;31160;49.500;7.772;2023-12-14T06:03:52;7.60;99.90
13794;DHT22;31160;49.500;7.772;2023-12-14T06:06:19;7.60;99.90
13794;DHT22;31160;49.500;7.772;2023-12-14T06:08:46;7.50;99.90
13794;DHT22;31160;49.500;7.772;2023-12-14T06:11:13;7.40;99.90
13794;DHT22;31160;49.500;7.772;2023-12-14T06:13:40;7.40;99.90
13794;DHT22;31160;49.500;7.772;2023-12-14T06:16:07;7.40;99.90
13794;DHT22;31160;49.500;7.772;2023-12-14T06:18:40;7.50;99.90
13794;DHT22;31160;49.500;7.772;2023-12-14T06:21:10;7.50;99.90
13794;DHT22;31160;49.500;7.772;2023-12-14T06:23:37;7.50;99.90
13794;DHT22;31160;49.500;7.772;2023-12-14T06:26:04;7.50;99.90
13794;DHT22;31160;49.500;7.772;2023-12-14T06:28:31;7.60;99.90
13794;DHT22;31160;49.500;7.772;2023-12-14T06:30:58;7.60;99.90
13794;DHT22;31160;49.500;7.772;2023-12-14T06:33:25;7.60;99.90
13794;DHT22;31160;49.500;7.772;2023-12-14T06:35:52;7.60;99.90
13794;DHT22;31160;49.500;7.772;2023-12-14T06:38:19;7.60;99.90
13794;DHT22;31160;49.500;7.772;2023-12-14T06:40:45;7.60;99.90
13794;DHT22;31160;49.500;7.772;2023-12-14T06:43:12;7.60;99.90
13794;DHT22;31160;49.500;7.772;2023-12-14T06:45:39;7.60;99.90
13794;DHT22;31160;49.500;7.772;2023-12-14T06:48:06;7.60;99.90
13794;DHT22;31160;49.500;7.772;2023-12-14T06:50:33;7.60;99.90
13794;DHT22;31160;49.500;7.772;2023-12-14T06:53:00;7.60;99.90
13794;DHT22;31160;49.500;7.772;2023-12-14T06:55:26;7.60;99.90
13794;DHT22;31160;49.500;7.772;2023-12-14T06:57:53;7.60;99.90
13794;DHT22;31160;49.500;7.772;2023-12-14T07:00:20;7.60;99.90
13794;DHT22;31160;49.500;7.772;2023-12-14T07:02:47;7.60;99.90
13794;DHT22;31160;49.500;7.772;2023-12-14T07:05:14;7.60;99.90
13794;DHT22;31160;49.500;7.772;2023-12-14T07:07:41;7.70;99.90
13794;DHT22;31160;49.500;7.772;2023-12-14T07:10:07;7.60;99.90
13794;DHT22;31160;49.500;7.772;2023-12-14T07:12:34;7.60;99.90
13794;DHT22;31160;49.500;7.772;2023-12-14T07:15:01;7.60;99.90
13794;DHT22;31160;49.500;7.772;2023-12-14T07:17:28;7.60;99.90
13794;DHT22;31160;49.500;7.772;2023-12-14T07:19:55;7.60;99.90
13794;DHT22;31160;49.500;7.772;2023-12-14T07:22:26;7.60;99.90
13794;DHT22;31160;49.500;7.772;2023-12-14T07:24:52;7.60;99.90
13794;DHT22;31160;49.500;7.772;2023-12-14T07:27:25;7.80;99.90
13794;DHT22;31160;49.500;7.772;2023-12-14T07:29:52;7.70;99.90
13794;DHT22;31160;49.500;7.772;2023-12-14T07:32:19;7.70;99.90
13794;DHT22;31160;49.500;7.772;2023-12-14T07:34:46;7.60;99.90
13794;DHT22;31160;49.500;7.772;2023-12-14T07:37:13;7.60;99.90
13794;DHT22;31160;49.500;7.772;2023-12-14T07:39:40;7.50;99.90
13794;DHT22;31160;49.500;7.772;2023-12-14T07:42:06;7.50;99.90
13794;DHT22;31160;49.500;7.772;2023-12-14T07:44:34;7.50;99.90
13794;DHT22;31160;49.500;7.772;2023-12-14T07:47:02;7.40;99.90
13794;DHT22;31160;49.500;7.772;2023-12-14T07:49:29;7.40;99.90
13794;DHT22;31160;49.500;7.772;2023-12-14T07:51:56;7.50;99.90
13794;DHT22;31160;49.500;7.772;2023-12-14T07:54:22;7.60;99.90
13794;DHT22;31160;49.500;7.772;2023-12-14T07:56:49;7.60;99.90
13794;DHT22;31160;49.500;7.772;2023-12-14T07:59:16;7.60;99.90
13794;DHT22;31160;49.500;7.772;2023-12-14T08:01:43;7.60;99.90
13794;DHT22;31160;49.500;7.772;2023-12-14T08:04:10;7.60;99.90
13794;DHT22;31160;49.500;7.772;2023-12-14T08:06:38;7.60;99.90
13794;DHT22;31160;49.500;7.772;2023-12-14T08:09:09;7.60;99.90
13794;DHT22;31160;49.500;7.772;2023-12-14T08:11:36;7.60;99.90
13794;DHT22;31160;49.500;7.772;2023-12-14T08:14:03;7.60;99.90
13794;DHT22;31160;49.500;7.772;2023-12-14T08:16:30;7.60;99.90
13794;DHT22;31160;49.500;7.772;2023-12-14T08:18:57;7.60;99.90
13794;DHT22;31160;49.500;7.772;2023-12-14T08:21:24;7.70;99.90
13794;DHT22;31160;49.500;7.772;2023-12-14T08:23:51;7.80;99.90
13794;DHT22;31160;49.500;7.772;2023-12-14T08:26:17;7.80;99.90
13794;DHT22;31160;49.500;7.772;2023-12-14T08:28:44;7.90;99.90
13794;DHT22;31160;49.500;7.772;2023-12-14T08:31:11;7.90;99.90
13794;DHT22;31160;49.500;7.772;2023-12-14T08:33:41;7.90;99.90
13794;DHT22;31160;49.500;7.772;2023-12-14T08:36:09;8.00;99.90
13794;DHT22;31160;49.500;7.772;2023-12-14T08:38:36;8.00;99.90
13794;DHT22;31160;49.500;7.772;2023-12-14T08:41:03;8.00;99.90
13794;DHT22;31160;49.500;7.772;2023-12-14T08:43:30;8.00;99.90
13794;DHT22;31160;49.500;7.772;2023-12-14T08:45:57;8.00;99.90
13794;DHT22;31160;49.500;7.772;2023-12-14T08:48:23;8.10;99.90
13794;DHT22;31160;49.500;7.772;2023-12-14T08:50:53;8.20;99.90
13794;DHT22;31160;49.500;7.772;2023-12-14T08:53:20;8.20;99.90
13794;DHT22;31160;49.500;7.772;2023-12-14T08:55:47;8.30;99.90
13794;DHT22;31160;49.500;7.772;2023-12-14T08:58:13;8.30;99.90
13794;DHT22;31160;49.500;7.772;2023-12-14T09:00:40;8.30;99.90
13794;DHT22;31160;49.500;7.772;2023-12-14T09:03:07;8.30;99.90
13794;DHT22;31160;49.500;7.772;2023-12-14T09:05:34;8.40;99.90
13794;DHT22;31160;49.500;7.772;2023-12-14T09:08:01;8.40;99.90
13794;DHT22;31160;49.500;7.772;2023-12-14T09:10:28;8.40;99.90
13794;DHT22;31160;49.500;7.772;2023-12-14T09:12:55;8.50;99.90
13794;DHT22;31160;49.500;7.772;2023-12-14T09:15:21;8.40;99.90
13794;DHT22;31160;49.500;7.772;2023-12-14T09:17:48;8.40;99.90
13794;DHT22;31160;49.500;7.772;2023-12-14T09:20:15;8.40;99.90
13794;DHT22;31160;49.500;7.772;2023-12-14T09:22:42;8.40;99.90
13794;DHT22;31160;49.500;7.772;2023-12-14T09:25:09;8.40;99.90
13794;DHT22;31160;49.500;7.772;2023-12-14T09:27:36;8.40;99.90
13794;DHT22;31160;49.500;7.772;2023-12-14T09:30:04;8.40;99.90
13794;DHT22;31160;49.500;7.772;2023-12-14T09:32:31;8.40;99.90
13794;DHT22;31160;49.500;7.772;2023-12-14T09:34:58;8.50;99.90
13794;DHT22;31160;49.500;7.772;2023-12-14T09:37:25;8.60;99.90
13794;DHT22;31160;49.500;7.772;2023-12-14T09:39:52;8.70;99.90
13794;DHT22;31160;49.500;7.772;2023-12-14T09:42:21;8.70;99.90
13794;DHT22;31160;49.500;7.772;2023-12-14T09:44:49;8.70;99.90
13794;DHT22;31160;49.500;7.772;2023-12-14T09:47:16;8.70;99.90
13794;DHT22;31160;49.500;7.772;2023-12-14T09:49:45;8.80;99.90
13794;DHT22;31160;49.500;7.772;2023-12-14T09:52:12;8.90;99.90
13794;DHT22;31160;49.500;7.772;2023-12-14T09:54:39;9.00;99.90
13794;DHT22;31160;49.500;7.772;2023-12-14T09:57:06;9.00;99.90
13794;DHT22;31160;49.500;7.772;2023-12-14T09:59:33;9.10;99.90
13794;DHT22;31160;49.500;7.772;2023-12-14T10:02:12;9.10;99.90
13794;DHT22;31160;49.500;7.772;2023-12-14T10:04:42;9.20;99.90
13794;DHT22;31160;49.500;7.772;2023-12-14T10:07:09;9.10;99.90
13794;DHT22;31160;49.500;7.772;2023-12-14T10:09:38;9.10;99.90
13794;DHT22;31160;49.500;7.772;2023-12-14T10:12:07;9.10;99.90
13794;DHT22;31160;49.500;7.772;2023-12-14T10:14:35;9.10;99.90
13794;DHT22;31160;49.500;7.772;2023-12-14T10:17:18;9.00;99.90
13794;DHT22;31160;49.500;7.772;2023-12-14T10:19:47;9.00;99.90
13794;DHT22;31160;49.500;7.772;2023-12-14T10:22:15;9.00;99.90
13794;DHT22;31160;49.500;7.772;2023-12-14T10:24:51;9.00;99.90
13794;DHT22;31160;49.500;7.772;2023-12-14T10:27:19;9.00;99.90
13794;DHT22;31160;49.500;7.772;2023-12-14T10:29:46;8.90;99.90
13794;DHT22;31160;49.500;7.772;2023-12-14T10:32:13;8.90;99.90
13794;DHT22;31160;49.500;7.772;2023-12-14T10:34:41;8.80;99.90
13794;DHT22;31160;49.500;7.772;2023-12-14T10:37:09;8.90;99.90
13794;DHT22;31160;49.500;7.772;2023-12-14T10:39:37;8.90;99.90
13794;DHT22;31160;49.500;7.772;2023-12-14T10:42:08;8.80;99.90
13794;DHT22;31160;49.500;7.772;2023-12-14T10:44:45;8.90;99.90
13794;DHT22;31160;49.500;7.772;2023-12-14T10:47:34;8.90;99.90
13794;DHT22;31160;49.500;7.772;2023-12-14T10:50:02;9.00;99.90
13794;DHT22;31160;49.500;7.772;2023-12-14T10:52:30;9.00;99.90
13794;DHT22;31160;49.500;7.772;2023-12-14T10:55:04;9.10;99.90
13794;DHT22;31160;49.500;7.772;2023-12-14T10:57:34;9.70;99.90
13794;DHT22;31160;49.500;7.772;2023-12-14T11:00:03;9.60;99.90
13794;DHT22;31160;49.500;7.772;2023-12-14T11:02:39;9.60;99.90
13794;DHT22;31160;49.500;7.772;2023-12-14T11:05:06;9.70;99.90
13794;DHT22;31160;49.500;7.772;2023-12-14T11:08:05;9.70;99.90
13794;DHT22;31160;49.500;7.772;2023-12-14T11:15:45;9.90;99.90
13794;DHT22;31160;49.500;7.772;2023-12-14T11:23:14;10.00;99.90
13794;DHT22;31160;49.500;7.772;2023-12-14T11:25:41;9.90;99.90
13794;DHT22;31160;49.500;7.772;2023-12-14T11:28:12;9.90;99.90
13794;DHT22;31160;49.500;7.772;2023-12-14T11:30:40;10.00;99.90
13794;DHT22;31160;49.500;7.772;2023-12-14T11:33:20;10.00;99.90
13794;DHT22;31160;49.500;7.772;2023-12-14T11:35:47;9.80;99.90
13794;DHT22;31160;49.500;7.772;2023-12-14T11:38:14;9.90;99.90
13794;DHT22;31160;49.500;7.772;2023-12-14T11:40:44;10.00;99.90
13794;DHT22;31160;49.500;7.772;2023-12-14T11:43:12;10.00;99.90
13794;DHT22;31160;49.500;7.772;2023-12-14T11:45:40;10.00;99.90
13794;DHT22;31160;49.500;7.772;2023-12-14T11:48:08;10.20;99.90
13794;DHT22;31160;49.500;7.772;2023-12-14T11:50:38;10.30;99.90
13794;DHT22;31160;49.500;7.772;2023-12-14T11:53:07;10.40;99.90
13794;DHT22;31160;49.500;7.772;2023-12-14T11:55:36;10.60;99.90
13794;DHT22;31160;49.500;7.772;2023-12-14T11:58:04;10.80;99.90
13794;DHT22;31160;49.500;7.772;2023-12-14T12:00:32;10.70;99.90
13794;DHT22;31160;49.500;7.772;2023-12-14T12:03:19;10.70;99.90
13794;DHT22;31160;49.500;7.772;2023-12-14T12:05:49;10.80;99.90
13794;DHT22;31160;49.500;7.772;2023-12-14T12:08:19;10.90;99.90
13794;DHT22;31160;49.500;7.772;2023-12-14T12:10:48;10.60;99.90
13794;DHT22;31160;49.500;7.772;2023-12-14T12:13:19;10.40;99.90
13794;DHT22;31160;49.500;7.772;2023-12-14T12:15:47;10.10;99.90
13794;DHT22;31160;49.500;7.772;2023-12-14T12:18:15;10.10;99.90
13794;DHT22;31160;49.500;7.772;2023-12-14T12:20:46;10.10;99.90
13794;DHT22;31160;49.500;7.772;2023-12-14T12:23:13;10.10;99.90
13794;DHT22;31160;49.500;7.772;2023-12-14T12:25:40;10.30;99.90
13794;DHT22;31160;49.500;7.772;2023-12-14T12:28:07;10.30;99.90
13794;DHT22;31160;49.500;7.772;2023-12-14T12:30:34;10.20;99.90
13794;DHT22;31160;49.500;7.772;2023-12-14T12:33:05;10.20;99.90
13794;DHT22;31160;49.500;7.772;2023-12-14T12:35:32;10.30;99.90
13794;DHT22;31160;49.500;7.772;2023-12-14T12:38:00;10.30;99.90
13794;DHT22;31160;49.500;7.772;2023-12-14T12:40:28;10.20;99.90
13794;DHT22;31160;49.500;7.772;2023-12-14T12:42:56;10.10;99.90
13794;DHT22;31160;49.500;7.772;2023-12-14T12:45:23;10.10;99.90
13794;DHT22;31160;49.500;7.772;2023-12-14T12:47:54;10.10;99.90
13794;DHT22;31160;49.500;7.772;2023-12-14T12:50:21;10.10;99.90
13794;DHT22;31160;49.500;7.772;2023-12-14T12:52:47;10.10;99.90
13794;DHT22;31160;49.500;7.772;2023-12-14T12:55:16;10.10;99.90
13794;DHT22;31160;49.500;7.772;2023-12-14T12:57:43;10.20;99.90
13794;DHT22;31160;49.500;7.772;2023-12-14T13:00:10;10.20;99.90
13794;DHT22;31160;49.500;7.772;2023-12-14T13:02:42;10.10;99.90
13794;DHT22;31160;49.500;7.772;2023-12-14T13:05:09;10.00;99.90
13794;DHT22;31160;49.500;7.772;2023-12-14T13:07:44;10.00;99.90
13794;DHT22;31160;49.500;7.772;2023-12-14T13:10:11;9.80;99.90
13794;DHT22;31160;49.500;7.772;2023-12-14T13:12:54;9.80;99.90
13794;DHT22;31160;49.500;7.772;2023-12-14T13:15:22;9.70;99.90
13794;DHT22;31160;49.500;7.772;2023-12-14T13:17:53;9.80;99.90
13794;DHT22;31160;49.500;7.772;2023-12-14T13:20:21;9.70;99.90
13794;DHT22;31160;49.500;7.772;2023-12-14T13:22:48;9.70;99.90
13794;DHT22;31160;49.500;7.772;2023-12-14T13:25:15;9.70;99.90
13794;DHT22;31160;49.500;7.772;2023-12-14T13:27:42;9.60;99.90
13794;DHT22;31160;49.500;7.772;2023-12-14T13:30:10;9.60;99.90
13794;DHT22;31160;49.500;7.772;2023-12-14T13:32:38;9.60;99.90
13794;DHT22;31160;49.500;7.772;2023-12-14T13:35:05;9.60;99.90
13794;DHT22;31160;49.500;7.772;2023-12-14T13:37:32;9.60;99.90
13794;DHT22;31160;49.500;7.772;2023-12-14T13:40:00;9.50;99.90
13794;DHT22;31160;49.500;7.772;2023-12-14T13:42:27;9.30;99.90
13794;DHT22;31160;49.500;7.772;2023-12-14T13:44:54;9.30;99.90
13794;DHT22;31160;49.500;7.772;2023-12-14T13:47:20;9.30;99.90
13794;DHT22;31160;49.500;7.772;2023-12-14T13:49:47;9.50;99.90
13794;DHT22;31160;49.500;7.772;2023-12-14T13:52:14;9.60;99.90
13794;DHT22;31160;49.500;7.772;2023-12-14T13:54:41;9.60;99.90
13794;DHT22;31160;49.500;7.772;2023-12-14T13:57:08;9.60;99.90
13794;DHT22;31160;49.500;7.772;2023-12-14T13:59:34;9.50;99.90
13794;DHT22;31160;49.500;7.772;2023-12-14T14:02:01;9.60;99.90
13794;DHT22;31160;49.500;7.772;2023-12-14T14:04:28;9.50;99.90
13794;DHT22;31160;49.500;7.772;2023-12-14T14:06:54;9.50;99.90
13794;DHT22;31160;49.500;7.772;2023-12-14T14:09:23;9.50;99.90
13794;DHT22;31160;49.500;7.772;2023-12-14T14:11:49;9.60;99.90
13794;DHT22;31160;49.500;7.772;2023-12-14T14:14:17;9.60;99.90
13794;DHT22;31160;49.500;7.772;2023-12-14T14:16:45;9.60;99.90
13794;DHT22;31160;49.500;7.772;2023-12-14T14:19:12;9.40;99.90
13794;DHT22;31160;49.500;7.772;2023-12-14T14:21:39;9.40;99.90
13794;DHT22;31160;49.500;7.772;2023-12-14T14:24:06;9.40;99.90
13794;DHT22;31160;49.500;7.772;2023-12-14T14:26:32;9.40;99.90
13794;DHT22;31160;49.500;7.772;2023-12-14T14:28:59;9.40;99.90
13794;DHT22;31160;49.500;7.772;2023-12-14T14:31:29;9.40;99.90
13794;DHT22;31160;49.500;7.772;2023-12-14T14:33:59;9.40;99.90
13794;DHT22;31160;49.500;7.772;2023-12-14T14:36:27;9.40;99.90
13794;DHT22;31160;49.500;7.772;2023-12-14T14:38:54;9.30;99.90
13794;DHT22;31160;49.500;7.772;2023-12-14T14:41:24;9.30;99.90
13794;DHT22;31160;49.500;7.772;2023-12-14T14:43:51;9.30;99.90
13794;DHT22;31160;49.500;7.772;2023-12-14T14:46:18;9.30;99.90
13794;DHT22;31160;49.500;7.772;2023-12-14T14:48:45;9.20;99.90
13794;DHT22;31160;49.500;7.772;2023-12-14T14:51:11;9.20;99.90
13794;DHT22;31160;49.500;7.772;2023-12-14T14:53:38;9.20;99.90
13794;DHT22;31160;49.500;7.772;2023-12-14T14:56:10;9.10;99.90
13794;DHT22;31160;49.500;7.772;2023-12-14T14:58:37;8.90;99.90
13794;DHT22;31160;49.500;7.772;2023-12-14T15:01:04;8.90;99.90
13794;DHT22;31160;49.500;7.772;2023-12-14T15:03:31;8.80;99.90
13794;DHT22;31160;49.500;7.772;2023-12-14T15:05:58;8.70;99.90
13794;DHT22;31160;49.500;7.772;2023-12-14T15:08:25;8.70;99.90
13794;DHT22;31160;49.500;7.772;2023-12-14T15:10:51;8.70;99.90
13794;DHT22;31160;49.500;7.772;2023-12-14T15:13:19;8.70;99.90
13794;DHT22;31160;49.500;7.772;2023-12-14T15:15:45;8.70;99.90
13794;DHT22;31160;49.500;7.772;2023-12-14T15:18:14;8.60;99.90
13794;DHT22;31160;49.500;7.772;2023-12-14T15:20:41;8.60;99.90
13794;DHT22;31160;49.500;7.772;2023-12-14T15:23:08;8.60;99.90
13794;DHT22;31160;49.500;7.772;2023-12-14T15:25:35;8.60;99.90
13794;DHT22;31160;49.500;7.772;2023-12-14T15:28:02;8.60;99.90
13794;DHT22;31160;49.500;7.772;2023-12-14T15:30:29;8.70;99.90
13794;DHT22;31160;49.500;7.772;2023-12-14T15:32:57;8.70;99.90
13794;DHT22;31160;49.500;7.772;2023-12-14T15:35:24;8.70;99.90
13794;DHT22;31160;49.500;7.772;2023-12-14T15:37:51;8.70;99.90
13794;DHT22;31160;49.500;7.772;2023-12-14T15:40:17;8.70;99.90
13794;DHT22;31160;49.500;7.772;2023-12-14T15:42:45;8.60;99.90
13794;DHT22;31160;49.500;7.772;2023-12-14T15:45:13;8.50;99.90
13794;DHT22;31160;49.500;7.772;2023-12-14T15:47:40;8.50;99.90
13794;DHT22;31160;49.500;7.772;2023-12-14T15:50:07;8.40;99.90
13794;DHT22;31160;49.500;7.772;2023-12-14T15:52:35;8.30;99.90
13794;DHT22;31160;49.500;7.772;2023-12-14T15:55:02;8.30;99.90
13794;DHT22;31160;49.500;7.772;2023-12-14T15:57:33;8.20;99.90